Due to increased abuse, free download for unverified email domains is blocked. Upgrade your account by donating to increase the download limit. Check the ⛑️Donate page for details.
A StarCraft®: Brood War® game, event, player and map database, replay sharing and analyzer site.
🚪Login (passwordless)
Tables:

Games

(Login to use tags)
# Title Host Date ↓ Date+Time ↓ Ago ↓ Engine Ladder Map Map Name Map Origin Map Hash Type Length Matchup Players Player descriptions - race·APM·EAPM(startdir) APMs EAPMs Start Dirs Avg APM Views DLs Chats MM Info - SN·GW·MMR Reps Event Uploaded Links Lnks
1 UAxhoAVyVxJG Im_a_knife 2023-12-31 2023-12-31 09:42:23 5M14d BW 1.21+ Blizzard Polypoid 1.75 Blizz xQyFf TvB 06:16 PvZ Im_a_knife 🆚 Zkiller! Im_a_knifeP·242·192④ 🆚 Zkiller!Z·246·160⑧ 242 🆚 246 192 🆚 160 4 🆚 8 200-300 6 0 1 2023 S2·US-W·D1513 1 2023-12-31 📊Analyze, ⬇Get, 👨Players 📊 👨
2 \KNZBOvEP]]S Im_a_knife 2023-12-31 2023-12-31 09:33:21 5M14d BW 1.21+ Blizzard Polypoid 1.75 Blizz xQyFf TvB 08:03 PvZ Im_a_knife 🆚 forksalinma Im_a_knifeP·199·153② 🆚 forksalinmaZ·336·219⑪ 199 🆚 336 153 🆚 219 2 🆚 11 200-300 4 0 55 2023 S2·KR·C1673 1 2024-01-01 📊Analyze, ⬇Get, 👨Players 📊 👨
3 UdSVMbz_XdsE Im_a_knife 2023-12-31 2023-12-31 09:25:16 5M14d BW 1.21+ Blizzard Vermeer SE 2.1 Blizz BJZMw TvB 03:49 PvZ Im_a_knife 🆚 without1818 Im_a_knifeP·241·164⑪ 🆚 without1818Z·249·215④ 241 🆚 249 164 🆚 215 11 🆚 4 200-300 4 0 0 2023 S2·KR·E1356 1 2024-01-01 📊Analyze, ⬇Get, 👨Players 📊 👨
4 sXXGTOLJaeGO Im_a_knife 2023-12-31 2023-12-31 09:10:26 5M14d BW 1.21+ Blizzard 투혼 1.3 Blizz v4RTL TvB 11:25 PvP Im_a_knife 🆚 wdddddddsaaaaaa Im_a_knifeP·201·164① 🆚 wdddddddsaaaaaaP·313·215⑪ 201 🆚 313 164 🆚 215 1 🆚 11 200-300 5 0 1 2023 S2·KR·D1487 1 2023-12-31 📊Analyze, ⬇Get, 👨Players 📊 👨
5 IsfXNENTR^Gb Im_a_knife 2023-12-31 2023-12-31 08:41:11 5M14d BW 1.21+ Blizzard Polypoid 1.75 Blizz xQyFf TvB 27:31 PvZ Im_a_knife 🆚 dddafedf Im_a_knifeP·187·156⑧ 🆚 dddafedfZ·180·131⑪ 187 🆚 180 156 🆚 131 8 🆚 11 100-200 6 0 0 2023 S2·KR·E1347 1 2024-01-01 📊Analyze, ⬇Get, 👨Players 📊 👨
6 UuKFtl^BTheI Im_a_knife 2023-12-31 2023-12-31 08:16:31 5M14d BW 1.21+ Blizzard Tempest 1.1 Blizz GApyB TvB 34:04 PvT Im_a_knife 🆚 sheinke Im_a_knifeP·183·154⑧ 🆚 sheinkeT·270·145② 183 🆚 270 154 🆚 145 8 🆚 2 200-300 5 0 1 2023 S2·KR·D1402 1 2023-12-31 📊Analyze, ⬇Get, 👨Players 📊 👨
7 py_iALBBdlvn spacefrog 2023-12-31 2023-12-31 08:05:59 5M14d BW 1.21+ Blizzard La Campanella 1.1 Blizz 135G_ TvB 03:43 ZvP spacefrog 🆚 Im_a_knife spacefrogZ·55·51⑧ 🆚 Im_a_knifeP·264·190⑤ 55 🆚 264 51 🆚 190 8 🆚 5 100-200 4 0 1 2023 S2·US-W·E1219 1 2023-12-31 📊Analyze, ⬇Get, 👨Players 📊 👨
8 A^tYLbjJwBgV Im_a_knife 2023-12-31 2023-12-31 07:57:36 5M14d BW 1.21+ Blizzard Polypoid 1.75 Blizz xQyFf TvB 07:11 PvZ Im_a_knife 🆚 dddshin Im_a_knifeP·228·181⑪ 🆚 dddshinZ·363·154② 228 🆚 363 181 🆚 154 11 🆚 2 200-300 4 0 0 2023 S2·KR·E1373 1 2024-01-01 📊Analyze, ⬇Get, 👨Players 📊 👨
9 YKgcSJtceDLx drenoi 2023-12-31 2023-12-31 07:41:44 5M14d BW 1.21+ Blizzard La Campanella 1.1 Blizz 135G_ TvB 09:38 ZvP drenoi 🆚 Im_a_knife drenoiZ·120·95① 🆚 Im_a_knifeP·217·166⑧ 120 🆚 217 95 🆚 166 1 🆚 8 100-200 4 0 1 2023 S2·KR·E1260 1 2023-12-31 📊Analyze, ⬇Get, 👨Players 📊 👨
10 hjXxOZxiAVJ] kmh9444 2023-12-31 2023-12-31 07:23:55 5M14d BW 1.21+ Blizzard Neo Dark Origin 2.0 Blizz ufy2L TvB 16:47 ZvP kmh9444 🆚 Im_a_knife kmh9444Z·159·133⑪ 🆚 Im_a_knifeP·174·142⑤ 159 🆚 174 133 🆚 142 11 🆚 5 100-200 3 0 35 2023 S2·KR·C1609 1 2023-12-31 📊Analyze, ⬇Get, 👨Players 📊 👨
11 oYnkRQtIOWgk NopoBulem 2023-12-31 2023-12-31 07:08:56 5M14d BW 1.21+ Blizzard Neo Dark Origin 2.0 Blizz ufy2L TvB 20:17 ZvP NopoBulem 🆚 Im_a_knife NopoBulemZ·159·110⑤ 🆚 Im_a_knifeP·206·158⑪ 159 🆚 206 110 🆚 158 5 🆚 11 100-200 3 0 1 2023 S2·KR·D1473 1 2023-12-31 📊Analyze, ⬇Get, 👨Players 📊 👨
12 rtFpMVQLUTnG Im_a_knife 2023-12-31 2023-12-31 06:55:17 5M14d BW 1.21+ Blizzard Invader 1.0 Blizz Rjd54 TvB 06:44 PvT Im_a_knife 🆚 popinsky Im_a_knifeP·255·202⑩ 🆚 popinskyT·209·182④ 255 🆚 209 202 🆚 182 10 🆚 4 200-300 4 0 0 2023 S2·US-W·E1376 1 2023-12-31 📊Analyze, ⬇Get, 👨Players 📊 👨
13 MSsBVaxnQOrr Im_a_knife 2023-12-31 2023-12-31 06:32:52 5M14d BW 1.21+ Blizzard Retro 1.2 Blizz O88b_ TvB 21:40 PvT Im_a_knife 🆚 zar. Im_a_knifeP·186·151⑧ 🆚 zar.T·265·181① 186 🆚 265 151 🆚 181 8 🆚 1 200-300 5 0 1 2023 S2·AS·E1371 1 2023-12-31 📊Analyze, ⬇Get, 👨Players 📊 👨
14 igHMDkFSWDYd Im_a_knife 2023-12-31 2023-12-31 06:15:57 5M14d BW 1.21+ Blizzard 투혼 1.3 Blizz v4RTL TvB 08:49 PvP Im_a_knife 🆚 ud9933321133 Im_a_knifeP·213·161① 🆚 ud9933321133P·287·153⑧ 213 🆚 287 161 🆚 153 1 🆚 8 200-300 5 0 32 2023 S2·AS·D1406 1 2023-12-31 📊Analyze, ⬇Get, 👨Players 📊 👨
15 ]lFNXDzVVmHX BELGUIMLANDOM 2023-12-31 2023-12-31 05:56:34 5M14d BW 1.21+ Blizzard Retro 1.2 Blizz O88b_ TvB 18:56 TvP BELGUIMLANDOM 🆚 Im_a_knife BELGUIMLANDOMT·236·205① 🆚 Im_a_knifeP·194·160⑧ 236 🆚 194 205 🆚 160 1 🆚 8 200-300 4 0 4 2023 S2·KR·E1389 1 2023-12-31 📊Analyze, ⬇Get, 👨Players 📊 👨
16 te\iYZ]LmmDQ Choc)YellOw 2023-12-31 2023-12-31 05:27:00 5M14d BW 1.21+ Blizzard La Campanella 1.1 Blizz 135G_ TvB 08:35 PvP Choc)YellOw 🆚 Im_a_knife Choc)YellOwP·209·183⑤ 🆚 Im_a_knifeP·222·165⑧ 209 🆚 222 183 🆚 165 5 🆚 8 200-300 3 0 1 2023 S2·KR·D1520 1 2023-12-31 📊Analyze, ⬇Get, 👨Players 📊 👨
17 pCTvnZijOHWg 80020817 2023-12-31 2023-12-31 05:17:20 5M14d BW 1.21+ Blizzard Polypoid 1.75 Blizz xQyFf TvB 11:28 PvP 80020817 🆚 Im_a_knife 80020817P·160·140② 🆚 Im_a_knifeP·240·177④ 160 🆚 240 140 🆚 177 2 🆚 4 200-300 4 0 15 2023 S2·KR·D1400 1 2023-12-31 📊Analyze, ⬇Get, 👨Players 📊 👨
18 rSIoLfuamBB` Im_a_knife 2023-12-31 2023-12-31 05:09:01 5M14d BW 1.21+ Blizzard La Campanella 1.1 Blizz 135G_ TvB 07:04 PvZ Im_a_knife 🆚 06nim Im_a_knifeP·220·169⑧ 🆚 06nimZ·145·136① 220 🆚 145 169 🆚 136 8 🆚 1 100-200 5 0 0 2023 S2·US-W·E1328 1 2023-12-31 📊Analyze, ⬇Get, 👨Players 📊 👨
19 IjlVrhrthIei Im_a_knife 2023-12-31 2023-12-31 04:50:51 5M14d BW 1.21+ Blizzard Invader 1.0 Blizz Rjd54 TvB 18:07 PvZ Im_a_knife 🆚 FookinKoreaArmy Im_a_knifeP·190·154⑩ 🆚 FookinKoreaArmyZ·166·139④ 190 🆚 166 154 🆚 139 10 🆚 4 100-200 6 0 1 2023 S2·KR·D1402 1 2023-12-31 📊Analyze, ⬇Get, 👨Players 📊 👨
20 XxYrzNk_HUMn sadasd21er21sd 2023-12-31 2023-12-31 04:39:44 5M14d BW 1.21+ Blizzard Vermeer SE 2.1 Blizz BJZMw TvB 10:35 ZvP sadasd21er21sd 🆚 Im_a_knife sadasd21er21sdZ·327·138⑪ 🆚 Im_a_knifeP·205·160④ 327 🆚 205 138 🆚 160 11 🆚 4 200-300 4 0 1 2023 S2·KR·D1449 1 2023-12-31 📊Analyze, ⬇Get, 👨Players 📊 👨